Thies, Senegal
Current Conditions -  °F | °C
As of 3:00 PM on Friday 24 Oct 2014 (Local Time) from GOOY Reporting Station
Scattered Clouds Scattered Clouds  
Wind Chill: 90°   Ceiling: Unl
Heat Index: 102°   Visibility: 6mi
Dew Point: 77°   Wind: 7mph
Humidity: 66%   Direction: 260°W
Pressure: 29.83"   Gusts: NA
Location:  14.81°N, 16.93°W
Report Text: GOOY 241500Z 26006KT 150V320 9999 SCT008 32/25 Q1010 NOSIG
Loading
Personal Weather Stations






























Interactive Weather Map
Tropical Storm Tracking
New forecast layout! Learn more

10-Day Weather Forecast

Advertisements
Track Severe Weather on mobile